sensor_id;sensor_type;location;lat;lon;timestamp;temperature;humidity
28530;DHT22;15737;49.760;6.632;2022-11-04T00:01:43;9.50;99.90
28530;DHT22;15737;49.760;6.632;2022-11-04T00:04:17;9.50;99.90
28530;DHT22;15737;49.760;6.632;2022-11-04T00:06:44;9.50;99.90
28530;DHT22;15737;49.760;6.632;2022-11-04T00:09:12;9.40;99.90
28530;DHT22;15737;49.760;6.632;2022-11-04T00:11:38;9.30;99.90
28530;DHT22;15737;49.760;6.632;2022-11-04T00:14:22;9.30;99.90
28530;DHT22;15737;49.760;6.632;2022-11-04T00:16:47;9.30;99.90
28530;DHT22;15737;49.760;6.632;2022-11-04T00:19:32;9.30;99.90
28530;DHT22;15737;49.760;6.632;2022-11-04T00:22:17;9.20;99.90
28530;DHT22;15737;49.760;6.632;2022-11-04T00:25:01;9.20;99.90
28530;DHT22;15737;49.760;6.632;2022-11-04T00:27:46;9.10;99.90
28530;DHT22;15737;49.760;6.632;2022-11-04T00:30:30;9.10;99.90
28530;DHT22;15737;49.760;6.632;2022-11-04T00:32:55;9.10;99.90
28530;DHT22;15737;49.760;6.632;2022-11-04T00:35:39;9.00;99.90
28530;DHT22;15737;49.760;6.632;2022-11-04T00:40:39;9.00;99.90
28530;DHT22;15737;49.760;6.632;2022-11-04T00:43:06;9.10;99.90
28530;DHT22;15737;49.760;6.632;2022-11-04T00:45:32;9.20;99.90
28530;DHT22;15737;49.760;6.632;2022-11-04T00:47:57;9.30;99.90
28530;DHT22;15737;49.760;6.632;2022-11-04T00:50:23;9.40;99.90
28530;DHT22;15737;49.760;6.632;2022-11-04T00:52:48;9.50;99.90
28530;DHT22;15737;49.760;6.632;2022-11-04T00:55:14;9.50;99.90
28530;DHT22;15737;49.760;6.632;2022-11-04T00:57:39;9.50;99.90
28530;DHT22;15737;49.760;6.632;2022-11-04T01:00:05;9.50;99.90
28530;DHT22;15737;49.760;6.632;2022-11-04T01:02:31;9.50;99.90
28530;DHT22;15737;49.760;6.632;2022-11-04T01:04:57;9.40;99.90
28530;DHT22;15737;49.760;6.632;2022-11-04T01:07:22;9.30;99.90
28530;DHT22;15737;49.760;6.632;2022-11-04T01:09:48;9.20;99.90
28530;DHT22;15737;49.760;6.632;2022-11-04T01:12:14;9.10;99.90
28530;DHT22;15737;49.760;6.632;2022-11-04T01:14:39;9.10;99.90
28530;DHT22;15737;49.760;6.632;2022-11-04T01:17:05;9.10;99.90
28530;DHT22;15737;49.760;6.632;2022-11-04T01:19:30;9.20;99.90
28530;DHT22;15737;49.760;6.632;2022-11-04T01:21:57;9.30;99.90
28530;DHT22;15737;49.760;6.632;2022-11-04T01:24:25;9.30;99.90
28530;DHT22;15737;49.760;6.632;2022-11-04T01:26:50;9.30;99.90
28530;DHT22;15737;49.760;6.632;2022-11-04T01:29:16;9.30;99.90
28530;DHT22;15737;49.760;6.632;2022-11-04T01:31:41;9.40;99.90
28530;DHT22;15737;49.760;6.632;2022-11-04T01:34:08;9.50;99.90
28530;DHT22;15737;49.760;6.632;2022-11-04T01:36:33;9.50;99.90
28530;DHT22;15737;49.760;6.632;2022-11-04T01:38:59;9.50;99.90
28530;DHT22;15737;49.760;6.632;2022-11-04T01:41:28;9.50;99.90
28530;DHT22;15737;49.760;6.632;2022-11-04T01:43:59;9.60;99.90
28530;DHT22;15737;49.760;6.632;2022-11-04T01:46:46;9.60;99.90
28530;DHT22;15737;49.760;6.632;2022-11-04T01:51:50;9.60;99.90
28530;DHT22;15737;49.760;6.632;2022-11-04T01:54:18;9.60;99.90
28530;DHT22;15737;49.760;6.632;2022-11-04T01:56:45;9.60;99.90
28530;DHT22;15737;49.760;6.632;2022-11-04T01:59:18;9.50;99.90
28530;DHT22;15737;49.760;6.632;2022-11-04T02:01:44;9.50;99.90
28530;DHT22;15737;49.760;6.632;2022-11-04T02:04:11;9.50;99.90
28530;DHT22;15737;49.760;6.632;2022-11-04T02:06:52;9.50;99.90
28530;DHT22;15737;49.760;6.632;2022-11-04T02:09:18;9.40;99.90
28530;DHT22;15737;49.760;6.632;2022-11-04T02:11:45;9.50;99.90
28530;DHT22;15737;49.760;6.632;2022-11-04T02:14:30;9.50;99.90
28530;DHT22;15737;49.760;6.632;2022-11-04T02:19:58;9.30;99.90
28530;DHT22;15737;49.760;6.632;2022-11-04T02:22:51;9.30;99.90
28530;DHT22;15737;49.760;6.632;2022-11-04T02:25:38;9.30;99.90
28530;DHT22;15737;49.760;6.632;2022-11-04T02:28:23;9.20;99.90
28530;DHT22;15737;49.760;6.632;2022-11-04T02:31:11;9.10;99.90
28530;DHT22;15737;49.760;6.632;2022-11-04T02:37:14;9.10;99.90
28530;DHT22;15737;49.760;6.632;2022-11-04T02:39:54;9.20;99.90
28530;DHT22;15737;49.760;6.632;2022-11-04T02:42:37;9.20;99.90
28530;DHT22;15737;49.760;6.632;2022-11-04T02:45:18;9.10;99.90
28530;DHT22;15737;49.760;6.632;2022-11-04T02:47:51;9.10;99.90
28530;DHT22;15737;49.760;6.632;2022-11-04T02:50:43;9.10;99.90
28530;DHT22;15737;49.760;6.632;2022-11-04T02:55:48;9.10;99.90
28530;DHT22;15737;49.760;6.632;2022-11-04T02:58:20;9.20;99.90
28530;DHT22;15737;49.760;6.632;2022-11-04T03:00:50;9.20;99.90
28530;DHT22;15737;49.760;6.632;2022-11-04T03:03:21;9.20;99.90
28530;DHT22;15737;49.760;6.632;2022-11-04T03:05:49;9.20;99.90
28530;DHT22;15737;49.760;6.632;2022-11-04T03:08:29;9.00;99.90
28530;DHT22;15737;49.760;6.632;2022-11-04T03:11:10;8.90;99.90
28530;DHT22;15737;49.760;6.632;2022-11-04T03:16:09;8.90;99.90
28530;DHT22;15737;49.760;6.632;2022-11-04T03:21:19;9.00;99.90
28530;DHT22;15737;49.760;6.632;2022-11-04T03:23:50;9.00;99.90
28530;DHT22;15737;49.760;6.632;2022-11-04T03:29:27;9.10;99.90
28530;DHT22;15737;49.760;6.632;2022-11-04T03:32:31;9.10;99.90
28530;DHT22;15737;49.760;6.632;2022-11-04T03:34:59;9.10;99.90
28530;DHT22;15737;49.760;6.632;2022-11-04T03:37:25;9.20;99.90
28530;DHT22;15737;49.760;6.632;2022-11-04T03:39:54;9.10;99.90
28530;DHT22;15737;49.760;6.632;2022-11-04T03:42:20;9.10;99.90
28530;DHT22;15737;49.760;6.632;2022-11-04T03:44:49;9.10;99.90
28530;DHT22;15737;49.760;6.632;2022-11-04T03:47:16;9.10;99.90
28530;DHT22;15737;49.760;6.632;2022-11-04T03:49:44;9.10;99.90
28530;DHT22;15737;49.760;6.632;2022-11-04T03:52:10;9.00;99.90
28530;DHT22;15737;49.760;6.632;2022-11-04T03:54:36;9.10;99.90
28530;DHT22;15737;49.760;6.632;2022-11-04T03:57:29;9.10;99.90
28530;DHT22;15737;49.760;6.632;2022-11-04T04:00:10;9.20;99.90
28530;DHT22;15737;49.760;6.632;2022-11-04T04:03:24;9.10;99.90
28530;DHT22;15737;49.760;6.632;2022-11-04T04:08:36;9.10;99.90
28530;DHT22;15737;49.760;6.632;2022-11-04T04:11:40;8.90;99.90
28530;DHT22;15737;49.760;6.632;2022-11-04T04:14:23;8.80;99.90
28530;DHT22;15737;49.760;6.632;2022-11-04T04:19:36;8.80;99.90
28530;DHT22;15737;49.760;6.632;2022-11-04T04:22:08;8.90;99.90
28530;DHT22;15737;49.760;6.632;2022-11-04T04:24:40;8.80;99.90
28530;DHT22;15737;49.760;6.632;2022-11-04T04:27:25;8.80;99.90
28530;DHT22;15737;49.760;6.632;2022-11-04T04:30:08;8.70;99.90
28530;DHT22;15737;49.760;6.632;2022-11-04T04:32:37;8.70;99.90
28530;DHT22;15737;49.760;6.632;2022-11-04T04:35:06;8.70;99.90
28530;DHT22;15737;49.760;6.632;2022-11-04T04:37:52;8.70;99.90
28530;DHT22;15737;49.760;6.632;2022-11-04T04:40:23;8.60;99.90
28530;DHT22;15737;49.760;6.632;2022-11-04T04:43:14;8.60;99.90
28530;DHT22;15737;49.760;6.632;2022-11-04T04:45:59;8.50;99.90
28530;DHT22;15737;49.760;6.632;2022-11-04T04:48:25;8.50;99.90
28530;DHT22;15737;49.760;6.632;2022-11-04T04:50:53;8.50;99.90
28530;DHT22;15737;49.760;6.632;2022-11-04T04:53:21;8.60;99.90
28530;DHT22;15737;49.760;6.632;2022-11-04T04:55:47;8.50;99.90
28530;DHT22;15737;49.760;6.632;2022-11-04T04:58:12;8.50;99.90
28530;DHT22;15737;49.760;6.632;2022-11-04T05:00:38;8.50;99.90
28530;DHT22;15737;49.760;6.632;2022-11-04T05:03:04;8.60;99.90
28530;DHT22;15737;49.760;6.632;2022-11-04T05:05:29;8.60;99.90
28530;DHT22;15737;49.760;6.632;2022-11-04T05:07:55;8.60;99.90
28530;DHT22;15737;49.760;6.632;2022-11-04T05:10:20;8.70;99.90
28530;DHT22;15737;49.760;6.632;2022-11-04T05:12:46;8.70;99.90
28530;DHT22;15737;49.760;6.632;2022-11-04T05:15:30;8.70;99.90
28530;DHT22;15737;49.760;6.632;2022-11-04T05:17:59;8.60;99.90
28530;DHT22;15737;49.760;6.632;2022-11-04T05:20:25;8.50;99.90
28530;DHT22;15737;49.760;6.632;2022-11-04T05:22:51;8.50;99.90
28530;DHT22;15737;49.760;6.632;2022-11-04T05:25:18;8.50;99.90
28530;DHT22;15737;49.760;6.632;2022-11-04T05:27:43;8.60;99.90
28530;DHT22;15737;49.760;6.632;2022-11-04T05:30:09;8.50;99.90
28530;DHT22;15737;49.760;6.632;2022-11-04T05:32:35;8.50;99.90
28530;DHT22;15737;49.760;6.632;2022-11-04T05:35:00;8.40;99.90
28530;DHT22;15737;49.760;6.632;2022-11-04T05:37:26;8.30;99.90
28530;DHT22;15737;49.760;6.632;2022-11-04T05:39:52;8.30;99.90
28530;DHT22;15737;49.760;6.632;2022-11-04T05:42:17;8.20;99.90
28530;DHT22;15737;49.760;6.632;2022-11-04T05:44:43;8.20;99.90
28530;DHT22;15737;49.760;6.632;2022-11-04T05:47:08;8.20;99.90
28530;DHT22;15737;49.760;6.632;2022-11-04T05:49:34;8.10;99.90
28530;DHT22;15737;49.760;6.632;2022-11-04T05:51:59;8.10;99.90
28530;DHT22;15737;49.760;6.632;2022-11-04T05:54:25;8.00;99.90
28530;DHT22;15737;49.760;6.632;2022-11-04T05:56:51;8.00;99.90
28530;DHT22;15737;49.760;6.632;2022-11-04T05:59:17;8.00;99.90
28530;DHT22;15737;49.760;6.632;2022-11-04T06:01:43;8.00;99.90
28530;DHT22;15737;49.760;6.632;2022-11-04T06:04:14;8.00;99.90
28530;DHT22;15737;49.760;6.632;2022-11-04T06:06:40;8.00;99.90
28530;DHT22;15737;49.760;6.632;2022-11-04T06:09:06;8.00;99.90
28530;DHT22;15737;49.760;6.632;2022-11-04T06:11:33;7.90;99.90
28530;DHT22;15737;49.760;6.632;2022-11-04T06:13:59;7.90;99.90
28530;DHT22;15737;49.760;6.632;2022-11-04T06:16:24;7.90;99.90
28530;DHT22;15737;49.760;6.632;2022-11-04T06:18:50;7.90;99.90
28530;DHT22;15737;49.760;6.632;2022-11-04T06:23:46;7.90;99.90
28530;DHT22;15737;49.760;6.632;2022-11-04T06:26:12;8.00;99.90
28530;DHT22;15737;49.760;6.632;2022-11-04T06:28:38;8.10;99.90
28530;DHT22;15737;49.760;6.632;2022-11-04T06:31:06;8.20;99.90
28530;DHT22;15737;49.760;6.632;2022-11-04T06:33:32;8.30;99.90
28530;DHT22;15737;49.760;6.632;2022-11-04T06:35:58;8.50;99.90
28530;DHT22;15737;49.760;6.632;2022-11-04T06:38:25;8.60;99.90
28530;DHT22;15737;49.760;6.632;2022-11-04T06:40:51;8.70;99.90
28530;DHT22;15737;49.760;6.632;2022-11-04T06:43:16;8.70;99.90
28530;DHT22;15737;49.760;6.632;2022-11-04T06:45:42;8.70;99.90
28530;DHT22;15737;49.760;6.632;2022-11-04T06:48:07;8.60;99.90
28530;DHT22;15737;49.760;6.632;2022-11-04T06:50:33;8.60;99.90
28530;DHT22;15737;49.760;6.632;2022-11-04T06:52:59;8.70;99.90
28530;DHT22;15737;49.760;6.632;2022-11-04T06:55:24;8.60;99.90
28530;DHT22;15737;49.760;6.632;2022-11-04T06:57:50;8.60;99.90
28530;DHT22;15737;49.760;6.632;2022-11-04T07:00:16;8.70;99.90
28530;DHT22;15737;49.760;6.632;2022-11-04T07:05:17;8.80;99.90
28530;DHT22;15737;49.760;6.632;2022-11-04T07:07:42;8.70;99.90
28530;DHT22;15737;49.760;6.632;2022-11-04T07:10:08;8.70;99.90
28530;DHT22;15737;49.760;6.632;2022-11-04T07:12:33;8.70;99.90
28530;DHT22;15737;49.760;6.632;2022-11-04T07:14:59;8.70;99.90
28530;DHT22;15737;49.760;6.632;2022-11-04T07:17:24;8.70;99.90
28530;DHT22;15737;49.760;6.632;2022-11-04T07:19:50;8.80;99.90
28530;DHT22;15737;49.760;6.632;2022-11-04T07:22:16;8.70;99.90
28530;DHT22;15737;49.760;6.632;2022-11-04T07:24:41;8.70;99.90
28530;DHT22;15737;49.760;6.632;2022-11-04T07:27:08;8.60;99.90
28530;DHT22;15737;49.760;6.632;2022-11-04T07:29:33;8.60;99.90
28530;DHT22;15737;49.760;6.632;2022-11-04T07:32:14;8.60;99.90
28530;DHT22;15737;49.760;6.632;2022-11-04T07:34:39;8.60;99.90
28530;DHT22;15737;49.760;6.632;2022-11-04T07:37:05;8.60;99.90
28530;DHT22;15737;49.760;6.632;2022-11-04T07:39:30;8.60;99.90
28530;DHT22;15737;49.760;6.632;2022-11-04T07:41:56;8.70;99.90
28530;DHT22;15737;49.760;6.632;2022-11-04T07:44:21;8.70;99.90
28530;DHT22;15737;49.760;6.632;2022-11-04T07:46:48;8.80;99.90
28530;DHT22;15737;49.760;6.632;2022-11-04T07:49:14;8.90;99.90
28530;DHT22;15737;49.760;6.632;2022-11-04T07:51:40;9.00;99.90
28530;DHT22;15737;49.760;6.632;2022-11-04T07:54:05;9.10;99.90
28530;DHT22;15737;49.760;6.632;2022-11-04T07:56:31;9.10;99.90
28530;DHT22;15737;49.760;6.632;2022-11-04T07:58:56;9.10;99.90
28530;DHT22;15737;49.760;6.632;2022-11-04T08:01:23;9.10;99.90
28530;DHT22;15737;49.760;6.632;2022-11-04T08:03:49;9.20;99.90
28530;DHT22;15737;49.760;6.632;2022-11-04T08:06:15;9.20;99.90
28530;DHT22;15737;49.760;6.632;2022-11-04T08:08:42;9.30;99.90
28530;DHT22;15737;49.760;6.632;2022-11-04T08:11:11;9.50;99.90
28530;DHT22;15737;49.760;6.632;2022-11-04T08:13:37;9.50;99.90
28530;DHT22;15737;49.760;6.632;2022-11-04T08:16:09;9.60;99.90
28530;DHT22;15737;49.760;6.632;2022-11-04T08:18:36;9.60;99.90
28530;DHT22;15737;49.760;6.632;2022-11-04T08:21:02;9.50;99.90
28530;DHT22;15737;49.760;6.632;2022-11-04T08:23:29;9.40;99.90
28530;DHT22;15737;49.760;6.632;2022-11-04T08:25:55;9.40;99.90
28530;DHT22;15737;49.760;6.632;2022-11-04T08:28:21;9.40;99.90
28530;DHT22;15737;49.760;6.632;2022-11-04T08:30:56;9.30;99.90
28530;DHT22;15737;49.760;6.632;2022-11-04T08:33:23;9.30;99.90
28530;DHT22;15737;49.760;6.632;2022-11-04T08:38:18;9.30;99.90
28530;DHT22;15737;49.760;6.632;2022-11-04T08:40:47;9.40;99.90
28530;DHT22;15737;49.760;6.632;2022-11-04T08:43:12;9.50;99.90
28530;DHT22;15737;49.760;6.632;2022-11-04T08:45:44;9.50;99.90
28530;DHT22;15737;49.760;6.632;2022-11-04T08:48:10;9.50;99.90
28530;DHT22;15737;49.760;6.632;2022-11-04T08:50:36;9.50;99.90
28530;DHT22;15737;49.760;6.632;2022-11-04T08:53:02;9.70;99.90
28530;DHT22;15737;49.760;6.632;2022-11-04T08:55:29;9.90;99.90
28530;DHT22;15737;49.760;6.632;2022-11-04T08:57:55;10.00;99.90
28530;DHT22;15737;49.760;6.632;2022-11-04T09:00:20;10.20;99.90
28530;DHT22;15737;49.760;6.632;2022-11-04T09:02:46;10.30;99.90
28530;DHT22;15737;49.760;6.632;2022-11-04T09:05:12;10.40;99.90
28530;DHT22;15737;49.760;6.632;2022-11-04T09:07:39;10.60;99.90
28530;DHT22;15737;49.760;6.632;2022-11-04T09:10:05;10.80;99.90
28530;DHT22;15737;49.760;6.632;2022-11-04T09:12:31;11.10;99.90
28530;DHT22;15737;49.760;6.632;2022-11-04T09:14:57;11.40;99.90
28530;DHT22;15737;49.760;6.632;2022-11-04T09:17:23;11.50;99.90
28530;DHT22;15737;49.760;6.632;2022-11-04T09:19:48;11.70;99.90
28530;DHT22;15737;49.760;6.632;2022-11-04T09:22:14;11.80;99.90
28530;DHT22;15737;49.760;6.632;2022-11-04T09:24:42;11.80;99.90
28530;DHT22;15737;49.760;6.632;2022-11-04T09:27:08;11.60;99.90
28530;DHT22;15737;49.760;6.632;2022-11-04T09:29:34;11.30;99.90
28530;DHT22;15737;49.760;6.632;2022-11-04T09:32:06;11.20;99.90
28530;DHT22;15737;49.760;6.632;2022-11-04T09:34:44;11.10;99.90
28530;DHT22;15737;49.760;6.632;2022-11-04T09:37:10;11.10;99.90
28530;DHT22;15737;49.760;6.632;2022-11-04T09:39:35;11.30;99.90
28530;DHT22;15737;49.760;6.632;2022-11-04T09:42:06;11.40;99.90
28530;DHT22;15737;49.760;6.632;2022-11-04T09:47:27;12.50;99.90
28530;DHT22;15737;49.760;6.632;2022-11-04T09:49:56;12.60;99.90
28530;DHT22;15737;49.760;6.632;2022-11-04T09:52:37;12.70;99.90
28530;DHT22;15737;49.760;6.632;2022-11-04T09:55:11;12.90;99.90
28530;DHT22;15737;49.760;6.632;2022-11-04T09:57:39;12.80;99.90
28530;DHT22;15737;49.760;6.632;2022-11-04T10:00:05;12.60;99.90
28530;DHT22;15737;49.760;6.632;2022-11-04T10:02:54;12.30;99.90
28530;DHT22;15737;49.760;6.632;2022-11-04T10:05:31;12.00;99.90
28530;DHT22;15737;49.760;6.632;2022-11-04T10:10:44;12.20;99.90
28530;DHT22;15737;49.760;6.632;2022-11-04T10:27:20;13.00;99.90
28530;DHT22;15737;49.760;6.632;2022-11-04T10:29:55;13.00;99.90
28530;DHT22;15737;49.760;6.632;2022-11-04T10:32:36;12.90;99.90
28530;DHT22;15737;49.760;6.632;2022-11-04T10:35:26;13.10;99.90
28530;DHT22;15737;49.760;6.632;2022-11-04T10:37:54;13.30;99.90
28530;DHT22;15737;49.760;6.632;2022-11-04T10:42:46;13.10;99.90
28530;DHT22;15737;49.760;6.632;2022-11-04T10:45:13;13.00;99.90
28530;DHT22;15737;49.760;6.632;2022-11-04T10:47:57;13.10;99.90
28530;DHT22;15737;49.760;6.632;2022-11-04T10:50:27;12.90;99.90
28530;DHT22;15737;49.760;6.632;2022-11-04T10:53:01;12.80;99.90
28530;DHT22;15737;49.760;6.632;2022-11-04T10:58:24;13.20;99.90
28530;DHT22;15737;49.760;6.632;2022-11-04T11:00:50;13.50;99.90
28530;DHT22;15737;49.760;6.632;2022-11-04T11:03:32;13.40;99.90
28530;DHT22;15737;49.760;6.632;2022-11-04T11:08:42;13.10;99.90
28530;DHT22;15737;49.760;6.632;2022-11-04T11:13:44;13.20;99.90
28530;DHT22;15737;49.760;6.632;2022-11-04T11:16:24;13.20;99.90
28530;DHT22;15737;49.760;6.632;2022-11-04T11:19:15;13.30;99.90
28530;DHT22;15737;49.760;6.632;2022-11-04T11:21:44;13.50;99.90
28530;DHT22;15737;49.760;6.632;2022-11-04T11:24:24;13.60;99.90
28530;DHT22;15737;49.760;6.632;2022-11-04T11:27:14;13.90;99.90
28530;DHT22;15737;49.760;6.632;2022-11-04T11:29:56;13.90;99.90
28530;DHT22;15737;49.760;6.632;2022-11-04T11:32:52;13.80;99.90
28530;DHT22;15737;49.760;6.632;2022-11-04T11:35:37;13.60;99.90
28530;DHT22;15737;49.760;6.632;2022-11-04T11:38:25;13.40;99.90
28530;DHT22;15737;49.760;6.632;2022-11-04T11:41:14;13.10;99.90
28530;DHT22;15737;49.760;6.632;2022-11-04T11:43:52;12.90;99.90
28530;DHT22;15737;49.760;6.632;2022-11-04T11:46:22;12.50;99.90
28530;DHT22;15737;49.760;6.632;2022-11-04T11:48:54;12.10;99.90
28530;DHT22;15737;49.760;6.632;2022-11-04T11:51:38;11.80;99.90
28530;DHT22;15737;49.760;6.632;2022-11-04T11:56:54;11.40;99.90
28530;DHT22;15737;49.760;6.632;2022-11-04T12:04:50;10.70;99.90
28530;DHT22;15737;49.760;6.632;2022-11-04T12:10:31;10.50;99.90
28530;DHT22;15737;49.760;6.632;2022-11-04T12:21:13;10.40;99.90
28530;DHT22;15737;49.760;6.632;2022-11-04T12:23:54;10.50;99.90
28530;DHT22;15737;49.760;6.632;2022-11-04T12:29:02;10.60;99.90
28530;DHT22;15737;49.760;6.632;2022-11-04T12:32:00;10.90;99.90
28530;DHT22;15737;49.760;6.632;2022-11-04T12:34:39;11.30;99.90
28530;DHT22;15737;49.760;6.632;2022-11-04T12:39:40;12.50;99.90
28530;DHT22;15737;49.760;6.632;2022-11-04T12:45:14;13.50;99.90
28530;DHT22;15737;49.760;6.632;2022-11-04T12:47:46;13.60;99.90
28530;DHT22;15737;49.760;6.632;2022-11-04T12:56:11;13.70;99.90
28530;DHT22;15737;49.760;6.632;2022-11-04T13:06:44;13.20;99.90
28530;DHT22;15737;49.760;6.632;2022-11-04T13:09:19;12.80;99.90
28530;DHT22;15737;49.760;6.632;2022-11-04T13:11:59;12.50;99.90
28530;DHT22;15737;49.760;6.632;2022-11-04T13:14:31;12.40;99.90
28530;DHT22;15737;49.760;6.632;2022-11-04T13:17:05;12.30;99.90
28530;DHT22;15737;49.760;6.632;2022-11-04T13:19:52;12.40;99.90
28530;DHT22;15737;49.760;6.632;2022-11-04T13:22:26;12.90;99.90
28530;DHT22;15737;49.760;6.632;2022-11-04T13:24:59;13.00;99.90
28530;DHT22;15737;49.760;6.632;2022-11-04T13:27:32;13.00;99.90
28530;DHT22;15737;49.760;6.632;2022-11-04T13:36:12;12.90;99.90
28530;DHT22;15737;49.760;6.632;2022-11-04T13:38:44;13.00;99.90
28530;DHT22;15737;49.760;6.632;2022-11-04T13:41:48;13.30;99.90
28530;DHT22;15737;49.760;6.632;2022-11-04T13:44:36;13.50;99.90
28530;DHT22;15737;49.760;6.632;2022-11-04T13:49:35;16.30;99.90
28530;DHT22;15737;49.760;6.632;2022-11-04T13:52:10;16.70;99.90
28530;DHT22;15737;49.760;6.632;2022-11-04T13:57:22;16.50;99.90
28530;DHT22;15737;49.760;6.632;2022-11-04T14:00:17;16.20;99.90
28530;DHT22;15737;49.760;6.632;2022-11-04T14:02:57;15.60;99.90
28530;DHT22;15737;49.760;6.632;2022-11-04T14:18:52;16.20;99.90
28530;DHT22;15737;49.760;6.632;2022-11-04T14:23:52;17.00;99.90
28530;DHT22;15737;49.760;6.632;2022-11-04T14:26:22;17.90;99.90
28530;DHT22;15737;49.760;6.632;2022-11-04T14:29:14;18.70;99.90
28530;DHT22;15737;49.760;6.632;2022-11-04T14:31:45;19.10;99.90
28530;DHT22;15737;49.760;6.632;2022-11-04T14:34:41;19.20;99.90
28530;DHT22;15737;49.760;6.632;2022-11-04T14:39:41;19.40;99.90
28530;DHT22;15737;49.760;6.632;2022-11-04T14:42:11;19.10;99.90
28530;DHT22;15737;49.760;6.632;2022-11-04T14:47:20;17.90;99.90
28530;DHT22;15737;49.760;6.632;2022-11-04T14:49:49;17.80;99.90
28530;DHT22;15737;49.760;6.632;2022-11-04T14:52:21;17.60;99.90
28530;DHT22;15737;49.760;6.632;2022-11-04T14:54:47;16.80;99.90
28530;DHT22;15737;49.760;6.632;2022-11-04T14:57:21;15.90;99.90
28530;DHT22;15737;49.760;6.632;2022-11-04T14:59:47;15.00;99.90
28530;DHT22;15737;49.760;6.632;2022-11-04T15:02:21;14.10;99.90
28530;DHT22;15737;49.760;6.632;2022-11-04T15:04:59;13.30;99.90
28530;DHT22;15737;49.760;6.632;2022-11-04T15:09:56;12.00;99.90
28530;DHT22;15737;49.760;6.632;2022-11-04T15:12:21;11.70;99.90
28530;DHT22;15737;49.760;6.632;2022-11-04T15:15:30;11.50;99.90
28530;DHT22;15737;49.760;6.632;2022-11-04T15:18:05;11.30;99.90
28530;DHT22;15737;49.760;6.632;2022-11-04T15:20:32;11.30;99.90
28530;DHT22;15737;49.760;6.632;2022-11-04T15:23:02;11.50;99.90
28530;DHT22;15737;49.760;6.632;2022-11-04T15:25:28;11.60;99.90
28530;DHT22;15737;49.760;6.632;2022-11-04T15:27:54;11.60;99.90
28530;DHT22;15737;49.760;6.632;2022-11-04T15:30:23;11.40;99.90
28530;DHT22;15737;49.760;6.632;2022-11-04T15:32:54;11.30;99.90
28530;DHT22;15737;49.760;6.632;2022-11-04T15:35:20;11.20;99.90
28530;DHT22;15737;49.760;6.632;2022-11-04T15:37:47;11.00;99.90
28530;DHT22;15737;49.760;6.632;2022-11-04T15:40:14;10.90;99.90
28530;DHT22;15737;49.760;6.632;2022-11-04T15:42:42;10.80;99.90
28530;DHT22;15737;49.760;6.632;2022-11-04T15:45:51;10.70;99.90
28530;DHT22;15737;49.760;6.632;2022-11-04T15:48:35;10.50;99.90
28530;DHT22;15737;49.760;6.632;2022-11-04T15:53:50;10.20;99.90
28530;DHT22;15737;49.760;6.632;2022-11-04T15:56:19;10.10;99.90
28530;DHT22;15737;49.760;6.632;2022-11-04T15:58:46;10.00;99.90
28530;DHT22;15737;49.760;6.632;2022-11-04T16:01:14;10.00;99.90
28530;DHT22;15737;49.760;6.632;2022-11-04T16:03:46;9.90;99.90
28530;DHT22;15737;49.760;6.632;2022-11-04T16:06:12;9.90;99.90
28530;DHT22;15737;49.760;6.632;2022-11-04T16:08:38;9.80;99.90
28530;DHT22;15737;49.760;6.632;2022-11-04T16:11:12;9.80;99.90
28530;DHT22;15737;49.760;6.632;2022-11-04T16:13:38;9.80;99.90
28530;DHT22;15737;49.760;6.632;2022-11-04T16:16:22;9.80;99.90
28530;DHT22;15737;49.760;6.632;2022-11-04T16:18:54;9.80;99.90
28530;DHT22;15737;49.760;6.632;2022-11-04T16:21:32;9.80;99.90
28530;DHT22;15737;49.760;6.632;2022-11-04T16:24:19;9.80;99.90
28530;DHT22;15737;49.760;6.632;2022-11-04T16:26:46;9.90;99.90
28530;DHT22;15737;49.760;6.632;2022-11-04T16:31:42;9.90;99.90
28530;DHT22;15737;49.760;6.632;2022-11-04T16:34:10;10.00;99.90
28530;DHT22;15737;49.760;6.632;2022-11-04T16:36:36;10.00;99.90
28530;DHT22;15737;49.760;6.632;2022-11-04T16:39:03;10.30;99.90
28530;DHT22;15737;49.760;6.632;2022-11-04T16:41:35;10.40;99.90
28530;DHT22;15737;49.760;6.632;2022-11-04T16:44:03;10.30;99.90
28530;DHT22;15737;49.760;6.632;2022-11-04T16:46:29;10.10;99.90
28530;DHT22;15737;49.760;6.632;2022-11-04T16:48:56;9.90;99.90
28530;DHT22;15737;49.760;6.632;2022-11-04T16:51:22;9.80;99.90
28530;DHT22;15737;49.760;6.632;2022-11-04T16:53:52;9.70;99.90
28530;DHT22;15737;49.760;6.632;2022-11-04T16:56:21;9.70;99.90
28530;DHT22;15737;49.760;6.632;2022-11-04T16:58:47;9.70;99.90
28530;DHT22;15737;49.760;6.632;2022-11-04T17:01:13;9.70;99.90
28530;DHT22;15737;49.760;6.632;2022-11-04T17:03:40;9.70;99.90
28530;DHT22;15737;49.760;6.632;2022-11-04T17:06:07;9.70;99.90
28530;DHT22;15737;49.760;6.632;2022-11-04T17:08:33;9.60;99.90
28530;DHT22;15737;49.760;6.632;2022-11-04T17:10:59;9.60;99.90
28530;DHT22;15737;49.760;6.632;2022-11-04T17:13:24;9.50;99.90
28530;DHT22;15737;49.760;6.632;2022-11-04T17:15:50;9.50;99.90
28530;DHT22;15737;49.760;6.632;2022-11-04T17:18:16;9.50;99.90
28530;DHT22;15737;49.760;6.632;2022-11-04T17:20:44;9.40;99.90
28530;DHT22;15737;49.760;6.632;2022-11-04T17:23:12;9.50;99.90
28530;DHT22;15737;49.760;6.632;2022-11-04T17:25:38;9.40;99.90
28530;DHT22;15737;49.760;6.632;2022-11-04T17:28:04;9.40;99.90
28530;DHT22;15737;49.760;6.632;2022-11-04T17:30:29;9.40;99.90
28530;DHT22;15737;49.760;6.632;2022-11-04T17:32:55;9.30;99.90
28530;DHT22;15737;49.760;6.632;2022-11-04T17:35:21;9.30;99.90
28530;DHT22;15737;49.760;6.632;2022-11-04T17:37:51;9.30;99.90
28530;DHT22;15737;49.760;6.632;2022-11-04T17:40:17;9.30;99.90
28530;DHT22;15737;49.760;6.632;2022-11-04T17:42:44;9.30;99.90
28530;DHT22;15737;49.760;6.632;2022-11-04T17:48:02;9.40;99.90
28530;DHT22;15737;49.760;6.632;2022-11-04T17:50:29;9.40;99.90
28530;DHT22;15737;49.760;6.632;2022-11-04T17:52:55;9.40;99.90
28530;DHT22;15737;49.760;6.632;2022-11-04T17:55:21;9.30;99.90
28530;DHT22;15737;49.760;6.632;2022-11-04T17:57:46;9.30;99.90
28530;DHT22;15737;49.760;6.632;2022-11-04T18:00:12;9.40;99.90
28530;DHT22;15737;49.760;6.632;2022-11-04T18:02:39;9.40;99.90
28530;DHT22;15737;49.760;6.632;2022-11-04T18:05:05;9.40;99.90
28530;DHT22;15737;49.760;6.632;2022-11-04T18:07:32;9.40;99.90
28530;DHT22;15737;49.760;6.632;2022-11-04T18:09:58;9.50;99.90
28530;DHT22;15737;49.760;6.632;2022-11-04T18:12:27;9.50;99.90
28530;DHT22;15737;49.760;6.632;2022-11-04T18:15:02;9.60;99.90
28530;DHT22;15737;49.760;6.632;2022-11-04T18:17:28;9.70;99.90
28530;DHT22;15737;49.760;6.632;2022-11-04T18:19:53;9.70;99.90
28530;DHT22;15737;49.760;6.632;2022-11-04T18:22:19;9.80;99.90
28530;DHT22;15737;49.760;6.632;2022-11-04T18:24:45;9.80;99.90
28530;DHT22;15737;49.760;6.632;2022-11-04T18:34:56;9.90;99.90
28530;DHT22;15737;49.760;6.632;2022-11-04T18:37:21;10.00;99.90
28530;DHT22;15737;49.760;6.632;2022-11-04T18:39:48;10.00;99.90
28530;DHT22;15737;49.760;6.632;2022-11-04T18:42:19;10.00;99.90